createdAt,value
2023-03-19T00:00:05.959Z,7.20
2023-03-19T00:01:08.668Z,7.14
2023-03-19T00:02:17.425Z,7.12
2023-03-19T00:03:20.089Z,7.14
2023-03-19T00:04:22.587Z,7.14
2023-03-19T00:05:24.361Z,7.16
2023-03-19T00:06:26.845Z,7.15
2023-03-19T00:07:28.926Z,7.13
2023-03-19T00:08:30.978Z,7.11
2023-03-19T00:09:33.196Z,7.11
2023-03-19T00:10:38.922Z,7.07
2023-03-19T00:11:41.065Z,7.05
2023-03-19T00:12:43.060Z,7.08
2023-03-19T00:13:45.032Z,7.13
2023-03-19T00:14:47.106Z,7.06
2023-03-19T00:15:49.229Z,7.07
2023-03-19T00:16:51.902Z,7.04
2023-03-19T00:17:54.686Z,7.03
2023-03-19T00:18:57.634Z,6.94
2023-03-19T00:19:59.678Z,6.95
2023-03-19T00:21:01.849Z,6.94
2023-03-19T00:22:03.859Z,6.95
2023-03-19T00:23:06.663Z,6.96
2023-03-19T00:24:10.138Z,6.97
2023-03-19T00:25:12.173Z,7.00
2023-03-19T00:26:14.142Z,6.96
2023-03-19T00:27:16.151Z,6.97
2023-03-19T00:28:18.708Z,7.03
2023-03-19T00:29:21.278Z,7.04
2023-03-19T00:30:24.498Z,7.04
2023-03-19T00:31:28.470Z,7.01
2023-03-19T00:32:30.526Z,6.94
2023-03-19T00:33:33.132Z,6.93
2023-03-19T00:34:35.180Z,6.86
2023-03-19T00:35:39.524Z,6.86
2023-03-19T00:36:41.784Z,6.89
2023-03-19T00:37:44.258Z,6.92
2023-03-19T00:38:46.970Z,6.95
2023-03-19T00:39:49.364Z,6.95
2023-03-19T00:40:51.209Z,6.97
2023-03-19T00:41:53.910Z,6.94
2023-03-19T00:42:56.123Z,6.96
2023-03-19T00:43:59.033Z,6.92
2023-03-19T00:45:01.433Z,6.94
2023-03-19T00:46:03.824Z,6.94
2023-03-19T00:47:07.491Z,6.82
2023-03-19T00:48:09.529Z,6.76
2023-03-19T00:49:11.704Z,6.78
2023-03-19T00:50:13.701Z,6.87
2023-03-19T00:51:15.918Z,6.90
2023-03-19T00:52:17.885Z,6.87
2023-03-19T00:53:20.487Z,6.87
2023-03-19T00:54:22.492Z,6.85
2023-03-19T00:55:25.896Z,6.75
2023-03-19T00:56:27.953Z,6.65
2023-03-19T00:57:29.950Z,6.61
2023-03-19T00:58:31.945Z,6.65
2023-03-19T00:59:34.104Z,6.76
2023-03-19T01:00:37.352Z,6.81
2023-03-19T01:01:39.430Z,6.80
2023-03-19T01:02:41.905Z,6.77
2023-03-19T01:03:45.600Z,6.72
2023-03-19T01:04:51.304Z,6.75
2023-03-19T01:05:53.277Z,6.79
2023-03-19T01:06:55.768Z,6.82
2023-03-19T01:07:57.867Z,6.87
2023-03-19T01:08:59.865Z,6.90
2023-03-19T01:10:02.039Z,6.89
2023-03-19T01:11:12.715Z,6.91
2023-03-19T01:12:14.742Z,6.96
2023-03-19T01:13:16.882Z,6.96
2023-03-19T01:14:18.908Z,7.02
2023-03-19T01:16:22.487Z,7.11
2023-03-19T01:17:24.633Z,7.10
2023-03-19T01:18:27.289Z,7.14
2023-03-19T01:19:30.364Z,7.16
2023-03-19T01:20:33.122Z,7.20
2023-03-19T01:21:36.801Z,7.21
2023-03-19T01:22:41.685Z,7.21
2023-03-19T01:23:43.731Z,7.18
2023-03-19T01:24:46.249Z,7.14
2023-03-19T01:25:48.258Z,7.14
2023-03-19T01:26:50.232Z,7.04
2023-03-19T01:27:52.954Z,6.97
2023-03-19T01:28:55.008Z,6.85
2023-03-19T01:29:57.045Z,6.80
2023-03-19T01:31:01.181Z,6.75
2023-03-19T01:32:03.161Z,6.83
2023-03-19T01:33:05.121Z,6.90
2023-03-19T01:34:07.720Z,6.95
2023-03-19T01:35:10.165Z,6.99
2023-03-19T01:36:12.604Z,7.02
2023-03-19T01:37:14.682Z,6.99
2023-03-19T01:38:18.136Z,6.94
2023-03-19T01:39:20.092Z,6.90
2023-03-19T01:40:22.262Z,6.93
2023-03-19T01:41:24.752Z,6.95
2023-03-19T01:42:26.618Z,6.94
2023-03-19T01:43:31.094Z,6.95
2023-03-19T01:44:36.402Z,7.00
2023-03-19T01:45:41.672Z,7.00
2023-03-19T01:46:43.778Z,6.98
2023-03-19T01:47:46.208Z,7.00
2023-03-19T01:48:50.131Z,6.96
2023-03-19T01:49:57.137Z,6.84
2023-03-19T01:51:00.822Z,6.84
2023-03-19T01:52:05.349Z,6.85
2023-03-19T01:53:09.744Z,6.89
2023-03-19T01:54:17.177Z,6.95
2023-03-19T01:55:20.323Z,6.93
2023-03-19T01:56:27.257Z,6.90
2023-03-19T01:57:31.534Z,6.96
2023-03-19T01:58:33.702Z,7.04
2023-03-19T01:59:40.883Z,7.11
2023-03-19T02:00:43.368Z,7.15
2023-03-19T02:01:53.659Z,7.21
2023-03-19T02:03:00.598Z,7.19
2023-03-19T02:04:04.087Z,7.14
2023-03-19T02:05:12.421Z,7.07
2023-03-19T02:06:15.666Z,7.04
2023-03-19T02:07:18.008Z,7.06
2023-03-19T02:08:21.754Z,7.06
2023-03-19T02:09:24.606Z,6.99
2023-03-19T02:10:27.530Z,7.01
2023-03-19T02:11:29.748Z,7.05
2023-03-19T02:12:32.049Z,6.97
2023-03-19T02:13:35.267Z,6.97
2023-03-19T02:14:37.300Z,6.98
2023-03-19T02:15:39.693Z,7.04
2023-03-19T02:16:41.570Z,7.05
2023-03-19T02:17:44.069Z,7.06
2023-03-19T02:18:46.417Z,7.04
2023-03-19T02:19:48.721Z,6.97
2023-03-19T02:21:05.967Z,6.97
2023-03-19T02:22:10.156Z,6.99
2023-03-19T02:23:34.895Z,6.96
2023-03-19T02:24:45.028Z,6.86
2023-03-19T02:25:46.912Z,6.83
2023-03-19T02:26:50.799Z,6.85
2023-03-19T02:27:53.958Z,6.87
2023-03-19T02:28:56.041Z,6.93
2023-03-19T02:29:58.077Z,6.94
2023-03-19T02:31:00.629Z,6.96
2023-03-19T02:32:03.956Z,6.94
2023-03-19T02:33:06.419Z,6.87
2023-03-19T02:34:20.115Z,6.84
2023-03-19T02:35:22.180Z,6.85
2023-03-19T02:36:24.715Z,6.86
2023-03-19T02:37:33.369Z,6.84
2023-03-19T02:38:39.403Z,6.89
2023-03-19T02:39:47.487Z,6.93
2023-03-19T02:40:54.030Z,6.95
2023-03-19T02:41:58.510Z,6.95
2023-03-19T02:43:00.894Z,6.96
2023-03-19T02:44:04.546Z,6.98
2023-03-19T02:45:07.552Z,6.97
2023-03-19T02:46:13.518Z,6.93
2023-03-19T02:47:16.471Z,6.94
2023-03-19T02:48:18.605Z,6.82
2023-03-19T02:49:20.558Z,6.78
2023-03-19T02:50:22.541Z,6.75
2023-03-19T02:51:24.566Z,6.76
2023-03-19T02:52:26.803Z,6.72
2023-03-19T02:53:28.774Z,6.69
2023-03-19T02:54:30.966Z,6.67
2023-03-19T02:55:33.185Z,6.66
2023-03-19T02:56:35.718Z,6.65
2023-03-19T02:57:37.462Z,6.73
2023-03-19T02:58:39.459Z,6.71
2023-03-19T02:59:41.617Z,6.71
2023-03-19T03:00:43.719Z,6.64
2023-03-19T03:01:45.811Z,6.65
2023-03-19T03:02:47.795Z,6.64
2023-03-19T03:03:49.827Z,6.63
2023-03-19T03:04:52.321Z,6.61
2023-03-19T03:05:54.185Z,6.61
2023-03-19T03:06:56.231Z,6.59
2023-03-19T03:07:58.371Z,6.60
2023-03-19T03:09:01.172Z,6.65
2023-03-19T03:10:03.197Z,6.69
2023-03-19T03:11:05.490Z,6.76
2023-03-19T03:12:08.679Z,6.77
2023-03-19T03:13:10.866Z,6.80
2023-03-19T03:14:12.893Z,6.71
2023-03-19T03:15:14.958Z,6.66
2023-03-19T03:16:17.668Z,6.69
2023-03-19T03:17:20.419Z,6.73
2023-03-19T03:18:22.598Z,6.73
2023-03-19T03:19:24.941Z,6.71
2023-03-19T03:20:26.872Z,6.75
2023-03-19T03:21:29.820Z,6.78
2023-03-19T03:22:31.853Z,6.81
2023-03-19T03:23:33.934Z,6.84
2023-03-19T03:24:36.425Z,6.86
2023-03-19T03:25:38.219Z,6.78
2023-03-19T03:26:40.335Z,6.67
2023-03-19T03:27:42.744Z,6.53
2023-03-19T03:28:44.578Z,6.53
2023-03-19T03:29:46.617Z,6.50
2023-03-19T03:30:49.640Z,6.52
2023-03-19T03:31:52.273Z,6.56
2023-03-19T03:32:54.569Z,6.60
2023-03-19T03:33:56.688Z,6.63
2023-03-19T03:34:58.665Z,6.66
2023-03-19T03:36:00.781Z,6.68
2023-03-19T03:37:02.870Z,6.64
2023-03-19T03:38:04.976Z,6.64
2023-03-19T03:39:07.012Z,6.63
2023-03-19T03:40:09.826Z,6.59
2023-03-19T03:41:11.779Z,6.48
2023-03-19T03:42:13.858Z,6.49
2023-03-19T03:43:16.019Z,6.54
2023-03-19T03:44:18.566Z,6.55
2023-03-19T03:45:21.089Z,6.55
2023-03-19T03:46:24.046Z,6.54
2023-03-19T03:47:26.140Z,6.41
2023-03-19T03:48:28.776Z,6.35
2023-03-19T03:49:30.904Z,6.39
2023-03-19T03:50:33.093Z,6.39
2023-03-19T03:51:35.569Z,6.28
2023-03-19T03:52:38.588Z,6.22
2023-03-19T03:53:40.641Z,6.27
2023-03-19T03:54:42.662Z,6.23
2023-03-19T03:55:44.700Z,6.20
2023-03-19T03:56:46.669Z,6.23
2023-03-19T03:57:49.858Z,6.21
2023-03-19T03:58:51.885Z,6.16
2023-03-19T03:59:54.321Z,6.10
2023-03-19T04:00:56.269Z,6.02
2023-03-19T04:01:58.375Z,5.99
2023-03-19T04:03:01.433Z,6.01
2023-03-19T04:04:03.871Z,5.97
2023-03-19T04:05:05.924Z,5.95
2023-03-19T04:06:08.032Z,5.92
2023-03-19T04:07:10.660Z,6.00
2023-03-19T04:08:13.221Z,6.07
2023-03-19T04:09:15.227Z,6.06
2023-03-19T04:10:17.540Z,6.05
2023-03-19T04:11:19.919Z,6.06
2023-03-19T04:12:22.302Z,6.03
2023-03-19T04:13:25.758Z,6.09
2023-03-19T04:14:28.096Z,6.16
2023-03-19T04:15:30.342Z,6.21
2023-03-19T04:16:32.851Z,6.29
2023-03-19T04:17:34.680Z,6.34
2023-03-19T04:18:37.596Z,6.39
2023-03-19T04:19:39.635Z,6.44
2023-03-19T04:20:41.754Z,6.47
2023-03-19T04:21:45.124Z,6.50
2023-03-19T04:22:47.018Z,6.52
2023-03-19T04:23:49.045Z,6.55
2023-03-19T04:24:51.480Z,6.59
2023-03-19T04:25:53.346Z,6.60
2023-03-19T04:26:55.359Z,6.63
2023-03-19T04:27:58.515Z,6.63
2023-03-19T04:29:00.605Z,6.63
2023-03-19T04:30:03.721Z,6.61
2023-03-19T04:31:07.861Z,6.60
2023-03-19T04:32:09.925Z,6.61
2023-03-19T04:33:12.377Z,6.59
2023-03-19T04:34:14.308Z,6.57
2023-03-19T04:35:16.501Z,6.53
2023-03-19T04:36:19.141Z,6.52
2023-03-19T04:37:21.382Z,6.50
2023-03-19T04:38:26.549Z,6.52
2023-03-19T04:39:28.607Z,6.52
2023-03-19T04:40:30.778Z,6.52
2023-03-19T04:41:32.798Z,6.52
2023-03-19T04:42:34.709Z,6.49
2023-03-19T04:43:37.105Z,6.49
2023-03-19T04:44:39.052Z,6.46
2023-03-19T04:45:41.267Z,6.45
2023-03-19T04:46:45.119Z,6.45
2023-03-19T04:47:47.280Z,6.44
2023-03-19T04:48:49.291Z,6.46
2023-03-19T04:49:51.707Z,6.45
2023-03-19T04:50:57.284Z,6.41
2023-03-19T04:51:59.484Z,6.40
2023-03-19T04:53:02.364Z,6.41
2023-03-19T04:54:05.755Z,6.39
2023-03-19T04:55:08.784Z,6.33
2023-03-19T04:56:11.552Z,6.32
2023-03-19T04:57:13.558Z,6.34
2023-03-19T04:58:15.541Z,6.36
2023-03-19T04:59:17.842Z,6.37
2023-03-19T05:00:20.972Z,6.33
2023-03-19T05:01:23.256Z,6.32
2023-03-19T05:02:25.451Z,6.34
2023-03-19T05:03:27.491Z,6.35
2023-03-19T05:04:29.476Z,6.35
2023-03-19T05:05:31.647Z,6.35
2023-03-19T05:06:33.661Z,6.30
2023-03-19T05:07:35.686Z,6.30
2023-03-19T05:08:37.657Z,6.25
2023-03-19T05:09:40.752Z,6.25
2023-03-19T05:10:42.796Z,6.24
2023-03-19T05:11:44.790Z,6.26
2023-03-19T05:12:46.820Z,6.20
2023-03-19T05:13:48.871Z,6.17
2023-03-19T05:14:50.845Z,6.12
2023-03-19T05:15:55.416Z,6.14
2023-03-19T05:16:57.453Z,6.12
2023-03-19T05:17:59.821Z,6.13
2023-03-19T05:19:01.868Z,6.09
2023-03-19T05:20:05.219Z,6.10
2023-03-19T05:21:11.671Z,6.11
2023-03-19T05:22:13.675Z,6.14
2023-03-19T05:23:16.133Z,6.17
2023-03-19T05:24:17.911Z,6.18
2023-03-19T05:25:19.845Z,6.18
2023-03-19T05:26:21.992Z,6.20
2023-03-19T05:27:24.085Z,6.14
2023-03-19T05:28:26.610Z,6.12
2023-03-19T05:29:28.452Z,6.13
2023-03-19T05:30:31.011Z,6.14
2023-03-19T05:31:33.068Z,6.12
2023-03-19T05:32:35.180Z,6.14
2023-03-19T05:33:37.183Z,6.16
2023-03-19T05:34:39.322Z,6.20
2023-03-19T05:35:41.463Z,6.25
2023-03-19T05:36:43.535Z,6.21
2023-03-19T05:37:46.249Z,6.19
2023-03-19T05:38:48.304Z,6.18
2023-03-19T05:39:51.812Z,6.19
2023-03-19T05:40:53.795Z,6.13
2023-03-19T05:41:56.549Z,6.03
2023-03-19T05:42:58.413Z,6.01
2023-03-19T05:44:00.434Z,5.99
2023-03-19T05:45:02.538Z,5.99
2023-03-19T05:46:04.742Z,6.02
2023-03-19T05:47:07.481Z,6.07
2023-03-19T05:48:09.999Z,6.11
2023-03-19T05:49:12.021Z,6.13
2023-03-19T05:50:14.071Z,6.16
2023-03-19T05:51:16.230Z,6.18
2023-03-19T05:52:18.274Z,6.18
2023-03-19T05:53:21.037Z,6.18
2023-03-19T05:54:23.076Z,6.20
2023-03-19T05:55:25.554Z,6.23
2023-03-19T05:56:27.748Z,6.24
2023-03-19T05:57:29.745Z,6.25
2023-03-19T05:58:32.032Z,6.29
2023-03-19T05:59:34.696Z,6.33
2023-03-19T06:00:37.113Z,6.35
2023-03-19T06:01:38.983Z,6.35
2023-03-19T06:02:41.241Z,6.31
2023-03-19T06:03:43.413Z,6.27
2023-03-19T06:04:46.068Z,6.27
2023-03-19T06:05:51.654Z,6.25
2023-03-19T06:06:53.665Z,6.20
2023-03-19T06:07:55.692Z,6.16
2023-03-19T06:08:57.777Z,6.14
2023-03-19T06:09:59.837Z,6.17
2023-03-19T06:11:01.824Z,6.20
2023-03-19T06:12:04.544Z,6.25
2023-03-19T06:13:06.793Z,6.25
2023-03-19T06:14:08.885Z,6.27
2023-03-19T06:15:11.371Z,6.27
2023-03-19T06:16:13.508Z,6.28
2023-03-19T06:17:15.655Z,6.28
2023-03-19T06:18:18.444Z,6.31
2023-03-19T06:19:20.510Z,6.31
2023-03-19T06:20:22.444Z,6.33
2023-03-19T06:21:29.842Z,6.35
2023-03-19T06:22:31.844Z,6.37
2023-03-19T06:23:33.874Z,6.38
2023-03-19T06:24:35.975Z,6.40
2023-03-19T06:25:38.223Z,6.42
2023-03-19T06:26:40.186Z,6.44
2023-03-19T06:27:42.458Z,6.40
2023-03-19T06:28:44.390Z,6.35
2023-03-19T06:29:47.245Z,6.32
2023-03-19T06:30:49.389Z,6.34
2023-03-19T06:31:51.695Z,6.37
2023-03-19T06:32:53.783Z,6.41
2023-03-19T06:33:55.932Z,6.44
2023-03-19T06:34:57.913Z,6.44
2023-03-19T06:36:00.407Z,6.45
2023-03-19T06:37:02.795Z,6.45
2023-03-19T06:38:04.773Z,6.44
2023-03-19T06:39:06.852Z,6.44
2023-03-19T06:40:09.772Z,6.46
2023-03-19T06:41:12.237Z,6.49
2023-03-19T06:42:14.147Z,6.50
2023-03-19T06:43:16.331Z,6.50
2023-03-19T06:44:18.427Z,6.53
2023-03-19T06:45:20.480Z,6.56
2023-03-19T06:46:22.736Z,6.57
2023-03-19T06:47:24.939Z,6.60
2023-03-19T06:48:26.860Z,6.61
2023-03-19T06:49:28.884Z,6.63
2023-03-19T06:50:30.799Z,6.60
2023-03-19T06:51:32.842Z,6.56
2023-03-19T06:52:34.783Z,6.52
2023-03-19T06:53:36.746Z,6.51
2023-03-19T06:54:38.723Z,6.47
2023-03-19T06:55:41.324Z,6.50
2023-03-19T06:56:43.263Z,6.51
2023-03-19T06:57:49.478Z,6.53
2023-03-19T06:58:51.568Z,6.56
2023-03-19T06:59:53.658Z,6.54
2023-03-19T07:00:55.909Z,6.56
2023-03-19T07:01:57.992Z,6.57
2023-03-19T07:03:00.423Z,6.59
2023-03-19T07:04:02.283Z,6.60
2023-03-19T07:05:04.746Z,6.66
2023-03-19T07:06:07.537Z,6.73
2023-03-19T07:07:09.552Z,6.79
2023-03-19T07:08:12.903Z,6.80
2023-03-19T07:09:15.060Z,6.74
2023-03-19T07:10:20.973Z,6.77
2023-03-19T07:11:22.948Z,6.81
2023-03-19T07:12:28.053Z,6.88
2023-03-19T07:13:30.158Z,6.94
2023-03-19T07:14:32.187Z,7.00
2023-03-19T07:15:34.680Z,7.06
2023-03-19T07:16:36.596Z,7.06
2023-03-19T07:17:38.862Z,7.11
2023-03-19T07:18:40.993Z,7.16
2023-03-19T07:19:42.987Z,7.21
2023-03-19T07:20:45.024Z,7.24
2023-03-19T07:21:47.110Z,7.27
2023-03-19T07:22:51.707Z,7.28
2023-03-19T07:23:53.763Z,7.33
2023-03-19T07:24:56.041Z,7.35
2023-03-19T07:25:58.824Z,7.35
2023-03-19T07:27:00.756Z,7.35
2023-03-19T07:28:02.881Z,7.36
2023-03-19T07:29:05.011Z,7.39
2023-03-19T07:30:07.622Z,7.41
2023-03-19T07:31:09.915Z,7.40
2023-03-19T07:32:12.889Z,7.45
2023-03-19T07:33:15.073Z,7.48
2023-03-19T07:34:17.068Z,7.51
2023-03-19T07:35:19.247Z,7.55
2023-03-19T07:36:22.261Z,7.61
2023-03-19T07:37:24.247Z,7.67
2023-03-19T07:38:26.374Z,7.69
2023-03-19T07:39:28.667Z,7.73
2023-03-19T07:40:30.683Z,7.74
2023-03-19T07:41:32.743Z,7.77
2023-03-19T07:42:36.734Z,7.83
2023-03-19T07:43:38.723Z,7.91
2023-03-19T07:44:40.909Z,7.96
2023-03-19T07:45:43.622Z,8.00
2023-03-19T07:46:45.897Z,8.06
2023-03-19T07:47:50.533Z,8.11
2023-03-19T07:48:52.875Z,8.17
2023-03-19T07:49:54.857Z,8.25
2023-03-19T07:50:56.872Z,8.34
2023-03-19T07:51:58.890Z,8.42
2023-03-19T07:53:00.973Z,8.47
2023-03-19T07:54:03.216Z,8.49
2023-03-19T07:55:06.646Z,8.54
2023-03-19T07:56:08.594Z,8.55
2023-03-19T07:57:10.746Z,8.60
2023-03-19T07:58:12.888Z,8.61
2023-03-19T07:59:14.899Z,8.68
2023-03-19T08:00:17.642Z,8.74
2023-03-19T08:01:20.102Z,8.76
2023-03-19T08:02:23.642Z,8.74
2023-03-19T08:03:25.966Z,8.77
2023-03-19T08:04:28.285Z,8.77
2023-03-19T08:05:30.446Z,8.74
2023-03-19T08:06:33.980Z,8.73
2023-03-19T08:07:36.941Z,8.79
2023-03-19T08:08:39.069Z,8.86
2023-03-19T08:09:41.047Z,8.94
2023-03-19T08:10:43.011Z,9.00
2023-03-19T08:11:45.046Z,9.06
2023-03-19T08:12:47.018Z,9.05
2023-03-19T08:13:49.038Z,9.07
2023-03-19T08:14:51.204Z,9.15
2023-03-19T08:15:53.827Z,9.20
2023-03-19T08:16:56.191Z,9.28
2023-03-19T08:17:58.758Z,9.35
2023-03-19T08:19:00.882Z,9.40
2023-03-19T08:20:03.011Z,9.43
2023-03-19T08:21:05.404Z,9.46
2023-03-19T08:22:07.488Z,9.54
2023-03-19T08:23:09.507Z,9.63
2023-03-19T08:24:11.599Z,9.69
2023-03-19T08:25:13.852Z,9.78
2023-03-19T08:26:15.801Z,9.86
2023-03-19T08:27:17.765Z,9.88
2023-03-19T08:28:20.059Z,9.90
2023-03-19T08:29:22.397Z,9.93
2023-03-19T08:30:24.453Z,10.00
2023-03-19T08:31:27.088Z,10.03
2023-03-19T08:32:28.997Z,9.99
2023-03-19T08:33:31.077Z,10.01
2023-03-19T08:34:33.662Z,10.06
2023-03-19T08:35:35.835Z,10.10
2023-03-19T08:36:37.785Z,10.14
2023-03-19T08:37:39.794Z,10.19
2023-03-19T08:38:42.953Z,10.26
2023-03-19T08:39:45.171Z,10.36
2023-03-19T08:40:47.999Z,10.44
2023-03-19T08:41:50.121Z,10.50
2023-03-19T08:42:52.128Z,10.54
2023-03-19T08:43:54.084Z,10.58
2023-03-19T08:44:56.328Z,10.66
2023-03-19T08:45:58.319Z,10.73
2023-03-19T08:47:00.466Z,10.74
2023-03-19T08:48:02.450Z,10.78
2023-03-19T08:49:04.439Z,10.80
2023-03-19T08:50:07.890Z,10.84
2023-03-19T08:51:10.218Z,10.88
2023-03-19T08:52:12.167Z,10.90
2023-03-19T08:53:14.045Z,10.85
2023-03-19T08:54:16.232Z,10.88
2023-03-19T08:55:18.562Z,10.90
2023-03-19T08:56:21.444Z,10.88
2023-03-19T08:57:23.536Z,10.88
2023-03-19T08:58:26.822Z,10.86
2023-03-19T08:59:31.430Z,10.88
2023-03-19T09:00:34.760Z,10.94
2023-03-19T09:01:37.494Z,10.99
2023-03-19T09:02:40.584Z,11.04
2023-03-19T09:03:44.113Z,11.09
2023-03-19T09:04:46.641Z,11.15
2023-03-19T09:05:48.706Z,11.20
2023-03-19T09:06:53.648Z,11.28
2023-03-19T09:07:55.610Z,11.35
2023-03-19T09:08:57.552Z,11.40
2023-03-19T09:09:59.606Z,11.45
2023-03-19T09:11:01.744Z,11.53
2023-03-19T09:12:03.842Z,11.61
2023-03-19T09:13:06.338Z,11.70
2023-03-19T09:14:08.086Z,11.78
2023-03-19T09:15:10.398Z,11.85
2023-03-19T09:16:12.520Z,11.95
2023-03-19T09:17:15.726Z,12.03
2023-03-19T09:18:20.735Z,12.12
2023-03-19T09:19:24.139Z,12.18
2023-03-19T09:20:26.475Z,12.23
2023-03-19T09:21:28.561Z,12.25
2023-03-19T09:22:30.643Z,12.28
2023-03-19T09:23:32.676Z,12.31
2023-03-19T09:24:34.697Z,12.37
2023-03-19T09:25:36.921Z,12.41
2023-03-19T09:26:39.050Z,12.45
2023-03-19T09:27:41.026Z,12.51
2023-03-19T09:28:43.058Z,12.58
2023-03-19T09:29:45.109Z,12.67
2023-03-19T09:30:48.490Z,12.75
2023-03-19T09:31:50.557Z,12.83
2023-03-19T09:32:52.667Z,12.88
2023-03-19T09:33:54.710Z,12.93
2023-03-19T09:34:57.604Z,13.00
2023-03-19T09:35:59.782Z,13.10
2023-03-19T09:37:02.148Z,13.13
2023-03-19T09:38:04.127Z,13.16
2023-03-19T09:39:07.657Z,13.28
2023-03-19T09:40:22.182Z,13.42
2023-03-19T09:41:45.645Z,13.55
2023-03-19T09:43:07.010Z,13.69
2023-03-19T09:44:13.753Z,13.77
2023-03-19T09:45:18.883Z,13.87
2023-03-19T09:46:27.045Z,13.92
2023-03-19T09:47:39.838Z,13.99
2023-03-19T09:48:49.752Z,14.07
2023-03-19T09:49:55.092Z,14.15
2023-03-19T09:50:59.633Z,14.24
2023-03-19T09:52:14.430Z,14.29
2023-03-19T09:53:40.771Z,14.38
2023-03-19T09:54:42.650Z,14.47
2023-03-19T09:55:49.111Z,14.55
2023-03-19T09:56:51.267Z,14.72
2023-03-19T09:57:55.918Z,14.87
2023-03-19T09:58:58.034Z,14.94
2023-03-19T10:00:00.123Z,14.98
2023-03-19T10:01:03.382Z,15.02
2023-03-19T10:02:36.123Z,15.03
2023-03-19T10:03:48.213Z,15.00
2023-03-19T10:05:05.835Z,15.02
2023-03-19T10:06:20.165Z,15.10
2023-03-19T10:07:38.507Z,15.22
2023-03-19T10:08:56.069Z,15.33
2023-03-19T10:10:14.038Z,15.43
2023-03-19T10:11:23.688Z,15.56
2023-03-19T10:13:00.961Z,15.65
2023-03-19T10:14:31.565Z,15.79
2023-03-19T10:15:36.104Z,15.85
2023-03-19T10:16:42.232Z,15.84
2023-03-19T10:17:56.734Z,15.89
2023-03-19T10:19:03.033Z,15.89
2023-03-19T10:20:15.684Z,15.88
2023-03-19T10:21:42.460Z,15.90
2023-03-19T10:22:57.217Z,15.97
2023-03-19T10:24:24.747Z,16.09
2023-03-19T10:25:29.815Z,16.11
2023-03-19T10:26:35.945Z,16.21
2023-03-19T10:27:38.457Z,16.32
2023-03-19T10:28:44.495Z,16.43
2023-03-19T10:29:46.914Z,16.51
2023-03-19T10:31:21.464Z,16.61
2023-03-19T10:32:42.392Z,16.69
2023-03-19T10:34:10.948Z,16.76
2023-03-19T10:35:21.011Z,16.86
2023-03-19T10:36:28.037Z,16.96
2023-03-19T10:37:30.888Z,17.09
2023-03-19T10:38:33.879Z,17.19
2023-03-19T10:39:38.103Z,17.29
2023-03-19T10:40:49.210Z,17.36
2023-03-19T10:42:18.591Z,17.48
2023-03-19T10:43:25.923Z,17.56
2023-03-19T10:44:46.311Z,17.60
2023-03-19T10:45:49.597Z,17.71
2023-03-19T10:46:51.552Z,17.79
2023-03-19T10:47:56.594Z,17.89
2023-03-19T10:48:58.508Z,17.99
2023-03-19T10:50:00.473Z,18.04
2023-03-19T10:51:06.324Z,18.13
2023-03-19T10:52:25.633Z,18.16
2023-03-19T10:53:38.404Z,18.19
2023-03-19T10:54:44.020Z,18.23
2023-03-19T10:55:55.500Z,18.32
2023-03-19T10:57:00.600Z,18.31
2023-03-19T10:58:04.174Z,18.31
2023-03-19T10:59:20.322Z,18.37
2023-03-19T11:00:29.594Z,18.44
2023-03-19T11:01:40.104Z,18.51
2023-03-19T11:02:48.187Z,18.52
2023-03-19T11:03:57.589Z,18.58
2023-03-19T11:05:14.536Z,18.72
2023-03-19T11:06:25.650Z,18.81
2023-03-19T11:07:28.515Z,18.91
2023-03-19T11:08:35.729Z,19.04
2023-03-19T11:09:41.041Z,19.17
2023-03-19T11:10:48.720Z,19.27
2023-03-19T11:11:57.022Z,19.33
2023-03-19T11:13:29.037Z,19.35
2023-03-19T11:14:44.807Z,19.36
2023-03-19T11:15:48.273Z,19.42
2023-03-19T11:16:56.665Z,19.31
2023-03-19T11:18:01.455Z,19.27
2023-03-19T11:19:03.507Z,19.36
2023-03-19T11:20:38.130Z,19.41
2023-03-19T11:21:40.155Z,19.49
2023-03-19T11:22:43.122Z,19.54
2023-03-19T11:23:45.177Z,19.64
2023-03-19T11:25:14.645Z,19.76
2023-03-19T11:26:21.190Z,19.87
2023-03-19T11:27:32.750Z,19.94
2023-03-19T11:28:37.962Z,20.04
2023-03-19T11:29:43.079Z,20.07
2023-03-19T11:30:51.144Z,20.20
2023-03-19T11:32:23.799Z,20.34
2023-03-19T11:33:25.794Z,20.39
2023-03-19T11:34:41.053Z,20.46
2023-03-19T11:35:58.640Z,20.56
2023-03-19T11:37:06.659Z,20.65
2023-03-19T11:38:16.443Z,20.75
2023-03-19T11:39:18.166Z,20.87
2023-03-19T11:40:43.230Z,20.84
2023-03-19T11:41:48.191Z,20.88
2023-03-19T11:43:02.162Z,20.85
2023-03-19T11:44:23.328Z,20.73
2023-03-19T11:45:58.722Z,20.76
2023-03-19T11:47:27.448Z,20.75
2023-03-19T11:49:09.104Z,20.93
2023-03-19T11:50:28.082Z,21.12
2023-03-19T11:51:38.897Z,21.07
2023-03-19T11:53:02.372Z,20.89
2023-03-19T11:54:06.975Z,20.84
2023-03-19T11:55:08.776Z,20.88
2023-03-19T11:56:30.417Z,20.97
2023-03-19T11:57:32.996Z,21.03
2023-03-19T11:58:40.727Z,21.14
2023-03-19T11:59:51.711Z,21.20
2023-03-19T12:00:54.282Z,21.24
2023-03-19T12:02:09.606Z,21.27
2023-03-19T12:03:26.682Z,21.33
2023-03-19T12:04:41.318Z,21.37
2023-03-19T12:05:56.403Z,21.37
2023-03-19T12:07:00.825Z,21.35
2023-03-19T12:08:05.932Z,21.20
2023-03-19T12:09:15.585Z,21.16
2023-03-19T12:10:36.131Z,21.13
2023-03-19T12:11:49.962Z,21.04
2023-03-19T12:13:04.529Z,21.03
2023-03-19T12:14:06.900Z,21.06
2023-03-19T12:15:35.327Z,21.17
2023-03-19T12:16:56.248Z,21.33
2023-03-19T12:17:59.743Z,21.48
2023-03-19T12:19:17.157Z,21.54
2023-03-19T12:20:38.568Z,21.64
2023-03-19T12:21:58.874Z,21.66
2023-03-19T12:23:12.614Z,21.57
2023-03-19T12:24:17.210Z,21.50
2023-03-19T12:25:42.379Z,21.48
2023-03-19T12:26:50.640Z,21.35
2023-03-19T12:27:59.924Z,21.32
2023-03-19T12:29:15.263Z,21.41
2023-03-19T12:30:35.966Z,21.47
2023-03-19T12:31:43.579Z,21.49
2023-03-19T12:32:51.906Z,21.44
2023-03-19T12:34:02.188Z,21.46
2023-03-19T12:35:30.346Z,21.48
2023-03-19T12:36:37.116Z,21.54
2023-03-19T12:37:42.947Z,21.42
2023-03-19T12:38:48.882Z,21.39
2023-03-19T12:39:56.104Z,21.28
2023-03-19T12:41:20.838Z,21.24
2023-03-19T12:42:25.652Z,21.29
2023-03-19T12:43:33.712Z,21.35
2023-03-19T12:44:41.051Z,21.37
2023-03-19T12:45:44.752Z,21.33
2023-03-19T12:46:52.207Z,21.25
2023-03-19T12:47:57.425Z,21.22
2023-03-19T12:49:05.320Z,21.08
2023-03-19T12:50:09.579Z,20.96
2023-03-19T12:51:13.888Z,20.87
2023-03-19T12:52:22.689Z,20.79
2023-03-19T12:53:50.980Z,20.70
2023-03-19T12:55:00.361Z,20.60
2023-03-19T12:56:09.870Z,20.41
2023-03-19T12:57:18.686Z,20.27
2023-03-19T12:58:46.917Z,20.30
2023-03-19T13:00:07.580Z,20.22
2023-03-19T13:01:17.069Z,20.16
2023-03-19T13:02:19.008Z,20.07
2023-03-19T13:03:28.297Z,19.98
2023-03-19T13:04:40.252Z,19.92
2023-03-19T13:05:45.094Z,19.85
2023-03-19T13:06:56.446Z,19.78
2023-03-19T13:08:13.657Z,19.79
2023-03-19T13:09:34.090Z,19.83
2023-03-19T13:10:36.273Z,19.92
2023-03-19T13:12:05.571Z,19.99
2023-03-19T13:13:18.972Z,19.91
2023-03-19T13:14:20.951Z,19.83
2023-03-19T13:15:28.711Z,19.75
2023-03-19T13:16:50.688Z,19.66
2023-03-19T13:18:01.236Z,19.49
2023-03-19T13:19:23.392Z,19.36
2023-03-19T13:20:25.314Z,19.23
2023-03-19T13:21:30.143Z,19.21
2023-03-19T13:22:34.980Z,19.23
2023-03-19T13:23:40.035Z,19.23
2023-03-19T13:24:44.587Z,19.15
2023-03-19T13:25:50.920Z,19.11
2023-03-19T13:26:54.172Z,19.07
2023-03-19T13:27:56.422Z,19.02
2023-03-19T13:29:03.113Z,19.04
2023-03-19T13:30:07.886Z,19.17
2023-03-19T13:31:20.066Z,19.17
2023-03-19T13:32:27.525Z,19.30
2023-03-19T13:33:30.115Z,19.56
2023-03-19T13:34:33.410Z,19.75
2023-03-19T13:35:41.006Z,19.74
2023-03-19T13:36:44.116Z,19.67
2023-03-19T13:37:56.335Z,19.68
2023-03-19T13:39:00.965Z,19.77
2023-03-19T13:40:05.202Z,19.87
2023-03-19T13:41:27.898Z,19.95
2023-03-19T13:42:42.809Z,20.24
2023-03-19T13:43:52.856Z,20.42
2023-03-19T13:44:58.694Z,20.50
2023-03-19T13:46:06.774Z,20.53
2023-03-19T13:47:27.049Z,20.44
2023-03-19T13:48:28.993Z,20.36
2023-03-19T13:49:36.743Z,20.15
2023-03-19T13:51:04.847Z,19.83
2023-03-19T13:52:13.031Z,19.57
2023-03-19T13:53:22.506Z,19.47
2023-03-19T13:54:35.103Z,19.45
2023-03-19T13:55:46.702Z,19.43
2023-03-19T13:57:10.314Z,19.31
2023-03-19T13:58:37.810Z,19.14
2023-03-19T13:59:44.338Z,19.02
2023-03-19T14:00:46.329Z,18.97
2023-03-19T14:01:48.828Z,18.86
2023-03-19T14:02:53.597Z,18.83
2023-03-19T14:04:03.346Z,18.81
2023-03-19T14:05:11.557Z,18.74
2023-03-19T14:06:35.440Z,18.70
2023-03-19T14:07:40.996Z,18.61
2023-03-19T14:08:52.046Z,18.60
2023-03-19T14:10:00.497Z,18.68
2023-03-19T14:11:05.959Z,18.87
2023-03-19T14:12:12.311Z,18.98
2023-03-19T14:13:35.541Z,19.17
2023-03-19T14:14:51.978Z,19.32
2023-03-19T14:16:01.040Z,19.48
2023-03-19T14:17:03.426Z,19.63
2023-03-19T14:18:08.199Z,19.62
2023-03-19T14:19:17.130Z,19.68